createdAt,value
2022-10-22T00:02:22.183Z,2.90
2022-10-22T00:04:50.130Z,2.20
2022-10-22T00:07:18.558Z,2.40
2022-10-22T00:09:45.420Z,3.23
2022-10-22T00:12:12.701Z,2.23
2022-10-22T00:14:39.984Z,3.30
2022-10-22T00:17:10.556Z,1.50
2022-10-22T00:19:38.205Z,3.33
2022-10-22T00:22:07.749Z,3.03
2022-10-22T00:24:35.709Z,3.67
2022-10-22T00:27:02.848Z,3.60
2022-10-22T00:29:29.589Z,5.10
2022-10-22T00:31:56.663Z,2.10
2022-10-22T00:34:23.892Z,2.70
2022-10-22T00:36:51.855Z,2.47
2022-10-22T00:39:20.673Z,4.17
2022-10-22T00:41:48.951Z,1.53
2022-10-22T00:44:53.263Z,2.97
2022-10-22T00:47:22.677Z,2.60
2022-10-22T00:49:50.318Z,3.23
2022-10-22T00:52:16.894Z,2.30
2022-10-22T00:54:44.445Z,2.83
2022-10-22T00:57:11.161Z,3.77
2022-10-22T00:59:38.376Z,2.93
2022-10-22T01:02:05.077Z,2.17
2022-10-22T01:04:31.871Z,1.63
2022-10-22T01:06:58.379Z,2.37
2022-10-22T01:09:36.642Z,3.40
2022-10-22T01:12:09.883Z,4.47
2022-10-22T01:15:01.873Z,4.60
2022-10-22T01:17:41.563Z,1.90
2022-10-22T01:20:32.033Z,1.93
2022-10-22T01:23:10.823Z,2.23
2022-10-22T01:25:43.072Z,1.77
2022-10-22T01:28:38.032Z,2.50
2022-10-22T01:31:06.131Z,2.10
2022-10-22T01:33:33.885Z,2.00
2022-10-22T01:36:01.125Z,3.00
2022-10-22T01:38:27.729Z,2.03
2022-10-22T01:40:55.509Z,1.20
2022-10-22T01:43:22.250Z,2.80
2022-10-22T01:45:52.555Z,3.47
2022-10-22T01:48:28.175Z,4.17
2022-10-22T01:50:57.733Z,2.90
2022-10-22T01:53:46.604Z,1.87
2022-10-22T01:56:36.447Z,2.23
2022-10-22T01:59:35.154Z,2.40
2022-10-22T02:02:26.861Z,1.10
2022-10-22T02:05:14.679Z,1.97
2022-10-22T02:07:50.838Z,1.33
2022-10-22T02:10:19.155Z,1.20
2022-10-22T02:12:50.352Z,2.20
2022-10-22T02:15:20.136Z,1.47
2022-10-22T02:17:48.069Z,2.50
2022-10-22T02:20:22.750Z,2.80
2022-10-22T02:22:49.894Z,2.23
2022-10-22T02:25:16.754Z,2.43
2022-10-22T02:27:56.999Z,2.87
2022-10-22T02:30:23.766Z,3.40
2022-10-22T02:32:56.872Z,2.70
2022-10-22T02:35:26.019Z,1.97
2022-10-22T02:37:54.777Z,1.87
2022-10-22T02:40:22.344Z,3.37
2022-10-22T02:42:50.487Z,1.47
2022-10-22T02:45:18.571Z,1.47
2022-10-22T02:47:45.499Z,2.23
2022-10-22T02:50:12.059Z,3.10
2022-10-22T02:52:38.953Z,2.63
2022-10-22T02:55:06.516Z,1.60
2022-10-22T02:57:33.433Z,1.67
2022-10-22T03:00:00.016Z,3.10
2022-10-22T03:02:26.508Z,1.30
2022-10-22T03:04:53.062Z,2.97
2022-10-22T03:07:19.542Z,2.60
2022-10-22T03:09:46.576Z,7.90
2022-10-22T03:12:13.184Z,2.27
2022-10-22T03:14:39.719Z,4.23
2022-10-22T03:17:06.262Z,7.23
2022-10-22T03:19:32.827Z,2.70
2022-10-22T03:22:02.328Z,2.30
2022-10-22T03:24:34.178Z,2.10
2022-10-22T03:27:00.940Z,1.77
2022-10-22T03:29:28.144Z,1.40
2022-10-22T03:31:55.549Z,1.47
2022-10-22T03:34:22.164Z,2.50
2022-10-22T03:36:49.767Z,3.23
2022-10-22T03:39:19.178Z,6.53
2022-10-22T03:41:48.169Z,2.03
2022-10-22T03:44:16.807Z,2.90
2022-10-22T03:46:43.438Z,1.57
2022-10-22T03:49:10.085Z,1.70
2022-10-22T03:51:36.642Z,3.00
2022-10-22T03:54:03.956Z,2.90
2022-10-22T03:56:30.563Z,9.07
2022-10-22T03:58:58.432Z,3.93
2022-10-22T04:01:25.623Z,1.57
2022-10-22T04:03:52.244Z,1.10
2022-10-22T04:06:18.780Z,2.27
2022-10-22T04:08:45.941Z,1.10
2022-10-22T04:11:14.602Z,2.67
2022-10-22T04:13:41.359Z,3.60
2022-10-22T04:16:12.087Z,2.13
2022-10-22T04:18:40.080Z,3.33
2022-10-22T04:21:09.078Z,2.13
2022-10-22T04:23:35.708Z,1.70
2022-10-22T04:26:05.379Z,2.03
2022-10-22T04:28:31.963Z,3.70
2022-10-22T04:30:58.675Z,2.30
2022-10-22T04:33:25.310Z,3.60
2022-10-22T04:35:51.915Z,1.83
2022-10-22T04:38:18.430Z,2.30
2022-10-22T04:40:45.000Z,1.40
2022-10-22T04:43:11.511Z,1.57
2022-10-22T04:45:38.038Z,1.37
2022-10-22T04:48:04.829Z,2.30
2022-10-22T04:50:31.387Z,1.00
2022-10-22T04:52:57.895Z,4.27
2022-10-22T04:55:24.442Z,2.40
2022-10-22T04:57:50.974Z,1.90
2022-10-22T05:00:17.702Z,6.20
2022-10-22T05:02:49.289Z,1.27
2022-10-22T05:05:15.834Z,0.93
2022-10-22T05:07:42.683Z,2.00
2022-10-22T05:10:09.954Z,1.57
2022-10-22T05:12:36.526Z,2.07
2022-10-22T05:15:03.172Z,2.13
2022-10-22T05:17:29.750Z,2.20
2022-10-22T05:19:56.281Z,1.17
2022-10-22T05:22:22.786Z,1.63
2022-10-22T05:24:49.338Z,0.90
2022-10-22T05:27:15.860Z,0.80
2022-10-22T05:29:42.424Z,1.43
2022-10-22T05:32:09.050Z,1.00
2022-10-22T05:34:36.219Z,0.70
2022-10-22T05:37:02.807Z,1.87
2022-10-22T05:39:29.390Z,0.80
2022-10-22T05:41:55.957Z,0.80
2022-10-22T05:44:22.522Z,1.00
2022-10-22T05:46:49.100Z,0.77
2022-10-22T05:49:16.089Z,1.10
2022-10-22T05:51:42.959Z,1.00
2022-10-22T05:54:16.867Z,1.17
2022-10-22T05:56:43.327Z,0.90
2022-10-22T05:59:11.183Z,1.00
2022-10-22T06:01:39.877Z,0.90
2022-10-22T06:04:10.150Z,1.40
2022-10-22T06:06:55.112Z,0.70
2022-10-22T06:09:30.935Z,0.73
2022-10-22T06:11:58.441Z,0.93
2022-10-22T06:14:25.842Z,0.90
2022-10-22T06:16:53.019Z,1.00
2022-10-22T06:19:21.767Z,4.87
2022-10-22T06:21:48.769Z,0.90
2022-10-22T06:24:16.293Z,1.30
2022-10-22T06:26:42.874Z,1.07
2022-10-22T06:29:09.884Z,1.50
2022-10-22T06:31:39.271Z,0.80
2022-10-22T06:34:08.194Z,1.20
2022-10-22T06:36:34.962Z,2.63
2022-10-22T06:39:01.684Z,1.10
2022-10-22T06:41:28.929Z,1.13
2022-10-22T06:43:57.888Z,3.80
2022-10-22T06:46:26.152Z,1.00
2022-10-22T06:49:00.501Z,2.27
2022-10-22T06:51:28.061Z,1.37
2022-10-22T06:53:55.606Z,1.47
2022-10-22T06:56:24.541Z,0.93
2022-10-22T06:58:53.002Z,0.87
2022-10-22T07:01:22.313Z,0.93
2022-10-22T07:03:51.720Z,0.80
2022-10-22T07:06:19.291Z,1.30
2022-10-22T07:08:45.978Z,1.10
2022-10-22T07:11:18.185Z,1.40
2022-10-22T07:13:45.776Z,1.10
2022-10-22T07:16:13.064Z,0.90
2022-10-22T07:18:40.545Z,1.03
2022-10-22T07:21:08.518Z,1.43
2022-10-22T07:23:35.281Z,0.97
2022-10-22T07:26:06.596Z,1.00
2022-10-22T07:28:33.940Z,1.20
2022-10-22T07:31:00.852Z,1.40
2022-10-22T07:33:27.585Z,1.10
2022-10-22T07:36:02.409Z,1.80
2022-10-22T07:38:29.437Z,1.20
2022-10-22T07:40:56.322Z,3.03
2022-10-22T07:43:23.518Z,2.00
2022-10-22T07:45:50.639Z,1.30
2022-10-22T07:48:17.801Z,2.60
2022-10-22T07:53:10.935Z,1.60
2022-10-22T07:55:37.840Z,1.57
2022-10-22T07:58:04.519Z,1.37
2022-10-22T08:00:31.288Z,1.27
2022-10-22T08:02:57.796Z,1.00
2022-10-22T08:05:24.342Z,2.53
2022-10-22T08:07:50.886Z,1.47
2022-10-22T08:10:17.631Z,1.27
2022-10-22T08:12:44.416Z,1.47
2022-10-22T08:15:11.259Z,1.40
2022-10-22T08:17:37.953Z,1.47
2022-10-22T08:20:04.754Z,1.57
2022-10-22T08:22:31.545Z,2.00
2022-10-22T08:24:59.157Z,1.40
2022-10-22T08:27:25.995Z,0.90
2022-10-22T08:29:52.587Z,1.80
2022-10-22T08:32:19.226Z,3.73
2022-10-22T08:34:45.775Z,1.30
2022-10-22T08:37:14.348Z,1.00
2022-10-22T08:39:41.470Z,1.33
2022-10-22T08:42:26.334Z,2.57
2022-10-22T08:45:19.984Z,4.30
2022-10-22T08:47:55.798Z,1.17
2022-10-22T08:50:27.572Z,1.87
2022-10-22T08:52:58.090Z,0.93
2022-10-22T08:55:25.412Z,2.17
2022-10-22T08:57:54.950Z,1.83
2022-10-22T09:00:34.993Z,7.10
2022-10-22T09:03:16.722Z,1.40
2022-10-22T09:05:55.139Z,0.90
2022-10-22T09:08:23.336Z,1.17
2022-10-22T09:10:57.304Z,1.10
2022-10-22T09:13:24.210Z,0.80
2022-10-22T09:16:10.368Z,1.20
2022-10-22T09:18:45.256Z,1.30
2022-10-22T09:21:27.869Z,3.90
2022-10-22T09:24:11.138Z,2.10
2022-10-22T09:26:40.508Z,1.20
2022-10-22T09:29:13.767Z,1.40
2022-10-22T09:31:40.419Z,2.90
2022-10-22T09:34:07.702Z,1.67
2022-10-22T09:36:34.946Z,1.50
2022-10-22T09:39:02.187Z,0.90
2022-10-22T09:41:30.078Z,1.13
2022-10-22T09:43:57.572Z,1.43
2022-10-22T09:46:28.566Z,2.07
2022-10-22T09:49:13.081Z,1.77
2022-10-22T09:52:00.227Z,3.13
2022-10-22T09:54:32.931Z,2.00
2022-10-22T09:57:16.655Z,1.20
2022-10-22T09:59:47.310Z,2.83
2022-10-22T10:02:37.102Z,1.20
2022-10-22T10:05:05.209Z,2.00
2022-10-22T10:07:33.964Z,3.83
2022-10-22T10:10:00.636Z,0.93
2022-10-22T10:12:43.847Z,3.70
2022-10-22T10:15:37.503Z,2.20
2022-10-22T10:18:23.815Z,2.10
2022-10-22T10:21:20.267Z,1.17
2022-10-22T10:24:03.451Z,1.40
2022-10-22T10:26:43.445Z,1.10
2022-10-22T10:29:39.297Z,1.23
2022-10-22T10:32:33.756Z,4.50
2022-10-22T10:35:22.197Z,4.13
2022-10-22T10:38:00.806Z,1.17
2022-10-22T10:40:36.904Z,3.33
2022-10-22T10:43:28.143Z,2.60
2022-10-22T10:46:12.315Z,1.73
2022-10-22T10:48:57.651Z,2.93
2022-10-22T10:51:49.348Z,3.60
2022-10-22T10:54:31.564Z,1.63
2022-10-22T10:57:03.284Z,1.83
2022-10-22T10:59:50.689Z,1.57
2022-10-22T11:02:45.758Z,4.93
2022-10-22T11:05:24.815Z,2.50
2022-10-22T11:08:10.880Z,3.00
2022-10-22T11:10:43.738Z,2.60
2022-10-22T11:13:21.212Z,1.20
2022-10-22T11:15:55.273Z,2.13
2022-10-22T11:18:35.653Z,1.30
2022-10-22T11:21:16.743Z,2.50
2022-10-22T11:24:04.555Z,1.90
2022-10-22T11:26:38.842Z,1.00
2022-10-22T11:29:11.471Z,1.53
2022-10-22T11:31:38.946Z,2.57
2022-10-22T11:34:33.214Z,1.73
2022-10-22T11:37:02.528Z,1.80
2022-10-22T11:39:43.757Z,0.97
2022-10-22T11:42:18.243Z,1.10
2022-10-22T11:45:27.050Z,1.60
2022-10-22T11:47:57.555Z,1.20
2022-10-22T11:50:47.050Z,1.30
2022-10-22T11:53:13.558Z,1.67
2022-10-22T11:55:45.526Z,2.07
2022-10-22T11:58:39.384Z,2.53
2022-10-22T12:01:08.972Z,1.20
2022-10-22T12:03:37.047Z,3.17
2022-10-22T12:06:28.510Z,1.60
2022-10-22T12:09:19.442Z,1.20
2022-10-22T12:11:50.993Z,1.70
2022-10-22T12:14:29.996Z,1.30
2022-10-22T12:16:59.189Z,1.17
2022-10-22T12:19:48.123Z,0.90
2022-10-22T12:22:33.115Z,0.97
2022-10-22T12:25:02.224Z,0.80
2022-10-22T12:27:44.419Z,1.43
2022-10-22T12:30:22.415Z,0.90
2022-10-22T12:32:52.781Z,1.50
2022-10-22T12:35:22.343Z,1.20
2022-10-22T12:37:55.053Z,2.00
2022-10-22T12:40:23.984Z,1.90
2022-10-22T12:42:52.920Z,1.00
2022-10-22T12:45:22.921Z,2.80
2022-10-22T12:47:58.342Z,1.03
2022-10-22T12:50:41.276Z,1.30
2022-10-22T12:53:22.228Z,2.00
2022-10-22T12:55:52.288Z,1.37
2022-10-22T12:58:22.204Z,1.23
2022-10-22T13:00:49.076Z,1.17
2022-10-22T13:03:38.714Z,1.23
2022-10-22T13:06:33.804Z,1.73
2022-10-22T13:09:00.589Z,1.27
2022-10-22T13:11:54.056Z,2.07
2022-10-22T13:14:25.130Z,1.07
2022-10-22T13:17:14.759Z,2.70
2022-10-22T13:19:43.849Z,1.10
2022-10-22T13:22:28.607Z,1.67
2022-10-22T13:24:59.863Z,1.50
2022-10-22T13:27:28.341Z,1.40
2022-10-22T13:29:57.033Z,1.43
2022-10-22T13:32:33.424Z,0.90
2022-10-22T13:35:03.958Z,2.03
2022-10-22T13:37:34.118Z,1.60
2022-10-22T13:40:00.654Z,2.43
2022-10-22T13:42:27.269Z,1.20
2022-10-22T13:44:53.840Z,2.30
2022-10-22T13:47:26.816Z,1.00
2022-10-22T13:50:01.948Z,1.10
2022-10-22T13:52:38.337Z,2.07
2022-10-22T13:55:26.799Z,1.30
2022-10-22T13:57:56.638Z,2.20
2022-10-22T14:00:24.325Z,2.40
2022-10-22T14:02:54.486Z,4.63
2022-10-22T14:05:21.472Z,1.97
2022-10-22T14:07:50.483Z,0.87
2022-10-22T14:10:23.009Z,4.70
2022-10-22T14:12:53.242Z,2.47
2022-10-22T14:15:24.093Z,2.40
2022-10-22T14:17:55.888Z,1.60
2022-10-22T14:20:25.888Z,1.20
2022-10-22T14:22:52.926Z,3.13
2022-10-22T14:25:22.126Z,1.27
2022-10-22T14:27:49.521Z,3.13
2022-10-22T14:30:21.749Z,2.60
2022-10-22T14:32:48.869Z,0.90
2022-10-22T14:35:21.224Z,3.50
2022-10-22T14:37:48.316Z,2.47
2022-10-22T14:40:18.367Z,2.20
2022-10-22T14:42:48.365Z,1.50
2022-10-22T14:45:25.123Z,2.73
2022-10-22T14:47:54.855Z,3.03
2022-10-22T14:50:21.914Z,1.33
2022-10-22T14:52:48.814Z,1.87
2022-10-22T14:55:18.656Z,2.03
2022-10-22T14:57:45.627Z,3.53
2022-10-22T15:00:15.874Z,1.03
2022-10-22T15:02:42.927Z,3.33
2022-10-22T15:05:09.727Z,1.77
2022-10-22T15:07:36.933Z,2.80
2022-10-22T15:10:05.134Z,2.33
2022-10-22T15:12:32.114Z,2.27
2022-10-22T15:14:58.651Z,1.47
2022-10-22T15:17:25.124Z,2.57
2022-10-22T15:19:53.066Z,1.03
2022-10-22T15:22:19.966Z,0.80
2022-10-22T15:24:48.406Z,1.40
2022-10-22T15:27:15.913Z,3.43
2022-10-22T15:29:42.789Z,2.60
2022-10-22T15:32:13.026Z,1.43
2022-10-22T15:34:40.263Z,1.97
2022-10-22T15:37:10.813Z,2.07
2022-10-22T15:39:41.339Z,1.30
2022-10-22T15:42:09.246Z,2.90
2022-10-22T15:44:36.076Z,1.53
2022-10-22T15:47:06.290Z,1.47
2022-10-22T15:49:35.852Z,4.50
2022-10-22T15:52:02.721Z,3.17
2022-10-22T15:54:30.446Z,1.57
2022-10-22T15:56:58.424Z,1.43
2022-10-22T15:59:25.497Z,2.40
2022-10-22T16:01:52.299Z,3.57
2022-10-22T16:04:18.847Z,3.63
2022-10-22T16:06:52.416Z,4.20
2022-10-22T16:09:22.174Z,4.87
2022-10-22T16:11:50.211Z,5.13
2022-10-22T16:14:19.755Z,3.57
2022-10-22T16:16:49.045Z,4.00
2022-10-22T16:19:17.501Z,4.17
2022-10-22T16:21:52.594Z,2.97
2022-10-22T16:24:19.999Z,2.10
2022-10-22T16:26:50.267Z,7.23
2022-10-22T16:29:16.838Z,14.27
2022-10-22T16:31:44.106Z,12.30
2022-10-22T16:34:11.222Z,6.07
2022-10-22T16:36:38.848Z,3.00
2022-10-22T16:39:06.540Z,3.80
2022-10-22T16:41:36.906Z,3.67
2022-10-22T16:44:06.659Z,4.23
2022-10-22T16:46:39.397Z,4.63
2022-10-22T16:49:08.831Z,2.77
2022-10-22T16:51:36.175Z,2.93
2022-10-22T16:54:22.235Z,2.40
2022-10-22T16:56:57.221Z,3.03
2022-10-22T16:59:26.165Z,3.37
2022-10-22T17:01:53.024Z,8.10
2022-10-22T17:04:19.616Z,3.50
2022-10-22T17:06:46.159Z,4.10
2022-10-22T17:09:13.763Z,2.83
2022-10-22T17:11:42.725Z,3.43
2022-10-22T17:14:11.419Z,4.80
2022-10-22T17:16:37.871Z,5.43
2022-10-22T17:19:05.248Z,8.33
2022-10-22T17:21:31.884Z,7.10
2022-10-22T17:23:58.588Z,20.53
2022-10-22T17:26:26.898Z,41.00
2022-10-22T17:28:53.940Z,51.40
2022-10-22T17:31:21.966Z,49.57
2022-10-22T17:33:50.700Z,47.10
2022-10-22T17:36:18.204Z,48.90
2022-10-22T17:38:53.610Z,19.27
2022-10-22T17:41:22.726Z,14.20
2022-10-22T17:43:49.622Z,34.00
2022-10-22T17:46:19.429Z,34.87
2022-10-22T17:48:52.891Z,23.80
2022-10-22T17:51:20.368Z,29.17
2022-10-22T17:53:50.141Z,28.10
2022-10-22T17:56:22.014Z,21.93
2022-10-22T17:58:49.215Z,12.40
2022-10-22T18:01:24.873Z,7.27
2022-10-22T18:03:52.979Z,6.30
2022-10-22T18:06:19.971Z,6.27
2022-10-22T18:08:47.059Z,6.10
2022-10-22T18:11:18.057Z,4.63
2022-10-22T18:13:44.968Z,4.90
2022-10-22T18:16:12.513Z,3.30
2022-10-22T18:18:39.197Z,5.00
2022-10-22T18:21:05.898Z,8.50
2022-10-22T18:23:33.402Z,7.87
2022-10-22T18:25:59.895Z,7.50
2022-10-22T18:28:27.528Z,4.67
2022-10-22T18:30:55.035Z,5.17
2022-10-22T18:33:24.087Z,3.17
2022-10-22T18:35:55.177Z,3.60
2022-10-22T18:38:23.649Z,3.80
2022-10-22T18:40:50.431Z,4.80
2022-10-22T18:43:18.328Z,4.50
2022-10-22T18:45:46.771Z,2.97
2022-10-22T18:48:15.113Z,3.33
2022-10-22T18:51:00.570Z,5.37
2022-10-22T18:53:27.524Z,5.00
2022-10-22T18:56:05.160Z,2.97
2022-10-22T18:58:37.194Z,4.27
2022-10-22T19:01:12.292Z,4.40
2022-10-22T19:03:38.944Z,10.13
2022-10-22T19:06:05.722Z,4.77
2022-10-22T19:08:32.951Z,4.30
2022-10-22T19:11:05.874Z,4.33
2022-10-22T19:13:32.393Z,4.13
2022-10-22T19:16:02.811Z,4.70
2022-10-22T19:18:29.565Z,4.17
2022-10-22T19:21:01.673Z,3.60
2022-10-22T19:23:32.200Z,2.57
2022-10-22T19:26:10.119Z,3.67
2022-10-22T19:28:38.712Z,6.83
2022-10-22T19:31:07.065Z,3.73
2022-10-22T19:33:34.947Z,6.00
2022-10-22T19:36:09.666Z,2.97
2022-10-22T19:38:40.439Z,3.80
2022-10-22T19:41:08.051Z,4.50
2022-10-22T19:43:34.711Z,6.83
2022-10-22T19:46:01.259Z,5.60
2022-10-22T19:48:29.713Z,4.00
2022-10-22T19:51:04.294Z,4.43
2022-10-22T19:53:33.187Z,4.00
2022-10-22T19:56:02.293Z,4.10
2022-10-22T19:58:32.143Z,8.50
2022-10-22T20:01:13.037Z,3.63
2022-10-22T20:03:39.857Z,4.63
2022-10-22T20:06:08.435Z,4.33
2022-10-22T20:08:38.912Z,3.60
2022-10-22T20:11:11.133Z,4.67
2022-10-22T20:16:11.107Z,4.00
2022-10-22T20:18:40.297Z,3.67
2022-10-22T20:21:08.292Z,4.07
2022-10-22T20:23:35.124Z,5.43
2022-10-22T20:26:01.671Z,5.53
2022-10-22T20:28:28.269Z,6.63
2022-10-22T20:30:54.846Z,5.17
2022-10-22T20:33:21.515Z,7.43
2022-10-22T20:36:01.562Z,6.40
2022-10-22T20:38:28.656Z,6.53
2022-10-22T20:41:19.944Z,6.63
2022-10-22T20:43:47.660Z,6.27
2022-10-22T20:46:19.933Z,6.07
2022-10-22T20:48:46.729Z,8.27
2022-10-22T20:51:13.350Z,8.93
2022-10-22T20:53:43.932Z,8.90
2022-10-22T20:56:11.119Z,6.93
2022-10-22T20:58:37.967Z,5.43
2022-10-22T21:01:10.268Z,5.17
2022-10-22T21:03:37.586Z,5.20
2022-10-22T21:06:05.923Z,5.67
2022-10-22T21:08:32.482Z,5.50
2022-10-22T21:10:59.015Z,3.93
2022-10-22T21:13:25.571Z,4.77
2022-10-22T21:15:52.083Z,7.10
2022-10-22T21:18:18.579Z,4.80
2022-10-22T21:20:45.093Z,5.03
2022-10-22T21:23:12.192Z,3.47
2022-10-22T21:25:41.961Z,4.20
2022-10-22T21:28:11.008Z,7.70
2022-10-22T21:30:44.775Z,4.13
2022-10-22T21:33:11.343Z,5.27
2022-10-22T21:35:37.839Z,4.80
2022-10-22T21:38:05.182Z,3.77
2022-10-22T21:40:37.405Z,4.17
2022-10-22T21:43:04.032Z,3.93
2022-10-22T21:45:30.657Z,4.80
2022-10-22T21:47:57.421Z,4.53
2022-10-22T21:50:24.040Z,6.50
2022-10-22T21:52:50.625Z,4.10
2022-10-22T21:55:17.302Z,5.43
2022-10-22T21:57:44.156Z,3.90
2022-10-22T22:00:11.884Z,3.53
2022-10-22T22:02:45.421Z,5.00
2022-10-22T22:05:12.082Z,4.53
2022-10-22T22:07:38.889Z,6.83
2022-10-22T22:10:07.325Z,4.70
2022-10-22T22:12:33.897Z,6.30
2022-10-22T22:15:00.631Z,4.60
2022-10-22T22:17:32.470Z,10.60
2022-10-22T22:20:10.506Z,5.93
2022-10-22T22:22:50.741Z,4.20
2022-10-22T22:25:25.823Z,4.13
2022-10-22T22:27:55.849Z,3.60
2022-10-22T22:32:02.578Z,15.83
2022-10-22T22:34:31.740Z,2.90
2022-10-22T22:36:58.265Z,3.03
2022-10-22T22:39:47.227Z,5.23
2022-10-22T22:42:18.217Z,3.47
2022-10-22T22:45:04.576Z,3.77
2022-10-22T22:48:01.155Z,3.80
2022-10-22T22:50:46.590Z,3.73
2022-10-22T22:53:35.529Z,3.53
2022-10-22T22:59:28.381Z,2.50
2022-10-22T23:02:20.954Z,2.47
2022-10-22T23:04:50.415Z,5.03
2022-10-22T23:07:17.021Z,6.20
2022-10-22T23:10:26.982Z,4.07
2022-10-22T23:13:04.884Z,2.77
2022-10-22T23:15:33.814Z,3.70
2022-10-22T23:18:01.927Z,2.40
2022-10-22T23:22:17.534Z,2.43
2022-10-22T23:23:30.972Z,3.37
2022-10-22T23:26:15.926Z,3.33
2022-10-22T23:28:45.587Z,2.53
2022-10-22T23:34:01.642Z,3.60
2022-10-22T23:36:28.645Z,2.90
2022-10-22T23:39:03.454Z,2.70
2022-10-22T23:41:35.994Z,5.53
2022-10-22T23:44:04.710Z,4.97
2022-10-22T23:46:32.706Z,3.10
2022-10-22T23:49:00.380Z,2.53
2022-10-22T23:51:28.016Z,1.80
2022-10-22T23:54:02.181Z,1.43
2022-10-22T23:56:33.183Z,1.90
2022-10-22T23:59:09.513Z,1.80
